Terminal Aerodrome Forecast
Issued by NWS

Home | Current Version | Previous Version | Text Only | Print | Product List | Glossary On
Versions: 1 2 3 4 5 6 7 8 9 10 11 12 13 14 15 16 17 18
000
FTUS45 KSLC 071506 AAA
TAF36U
TAF AMD
K36U 071506Z 0715/0812 VRB04KT 6SM -SHSN BKN010 OVC030
     FM071700 VRB05KT 6SM -SHSN BKN020 OVC040
     FM071800 VRB04KT P6SM VCSH SCT020 BKN050
     FM072000 33010KT P6SM SCT020 BKN050=

USA.gov is the U.S. government's official web portal to all federal, state and local government web resources and services.